Time;durP1;ratioP1;P1;durP2;ratioP2;P2;SDS_P1;SDS_P2;PMS_P1;PMS_P2;Temp;Humidity;BMP_temperature;BMP_pressure;BME280_temperature;BME280_humidity;BME280_pressure;Samples;Min_cycle;Max_cycle;Signal;HPM_P1;HPM_P2
2023/04/25 00:01:53;;;;;;;3.90;2.43;;;;;;;11.99;nan;98977.84;4979721;28;20314;-80
2023/04/25 00:04:19;;;;;;;5.60;3.00;;;;;;;12.01;nan;98972.44;4974773;28;20698;-80
2023/04/25 00:06:44;;;;;;;3.00;2.80;;;;;;;11.99;nan;98959.44;4975812;28;20277;-81
2023/04/25 00:09:10;;;;;;;5.00;3.40;;;;;;;11.95;nan;98955.34;4977417;28;20808;-80
2023/04/25 00:11:36;;;;;;;3.78;2.60;;;;;;;11.91;nan;98956.56;4972729;28;20226;-80
2023/04/25 00:14:02;;;;;;;7.67;3.27;;;;;;;11.89;nan;98942.69;4976784;28;20560;-80
2023/04/25 00:16:30;;;;;;;4.50;2.65;;;;;;;11.87;nan;98955.13;4977986;28;20549;-80
2023/04/25 00:18:56;;;;;;;4.13;2.30;;;;;;;11.84;nan;98956.19;4975770;28;20310;-80
2023/04/25 00:21:24;;;;;;;3.97;2.40;;;;;;;11.79;nan;98963.59;4976551;28;20215;-80
2023/04/25 00:23:50;;;;;;;3.13;2.83;;;;;;;11.77;nan;98972.56;4976097;28;20211;-80
2023/04/25 00:26:15;;;;;;;4.77;2.80;;;;;;;11.76;nan;98974.38;4980564;28;20402;-80
2023/04/25 00:28:40;;;;;;;2.63;2.00;;;;;;;11.74;nan;98971.84;4980716;28;20635;-80
2023/04/25 00:31:06;;;;;;;6.97;2.37;;;;;;;11.72;nan;98968.53;4977210;28;20204;-80
2023/04/25 00:33:32;;;;;;;5.07;2.60;;;;;;;11.69;nan;98958.25;4962631;28;20246;-80
2023/04/25 00:35:57;;;;;;;6.50;2.93;;;;;;;11.67;nan;98959.31;4982027;28;20250;-80
2023/04/25 00:38:22;;;;;;;4.33;2.93;;;;;;;11.61;nan;98965.03;4962977;28;20351;-80
2023/04/25 00:40:49;;;;;;;2.47;2.28;;;;;;;11.58;nan;98960.00;4983052;28;20218;-80
2023/04/25 00:43:14;;;;;;;3.23;2.93;;;;;;;11.55;nan;98955.84;4964405;28;20188;-80
2023/04/25 00:45:40;;;;;;;2.27;2.07;;;;;;;11.54;nan;98959.44;4979630;28;20200;-80
2023/04/25 00:48:06;;;;;;;2.90;2.30;;;;;;;11.53;nan;98955.13;4966292;28;20206;-80
2023/04/25 00:50:33;;;;;;;5.43;2.60;;;;;;;11.51;nan;98963.13;4988645;28;20597;-80
2023/04/25 00:53:00;;;;;;;4.18;2.53;;;;;;;11.51;nan;98959.66;4982205;28;20211;-80
2023/04/25 00:55:25;;;;;;;3.28;2.83;;;;;;;11.49;nan;98959.78;4980619;28;20743;-80
2023/04/25 00:57:51;;;;;;;2.87;2.10;;;;;;;11.49;nan;98961.56;4965245;28;20199;-80
2023/04/25 01:00:17;;;;;;;2.87;2.63;;;;;;;11.47;nan;98964.31;4981529;28;20658;-82
2023/04/25 01:02:44;;;;;;;2.60;2.25;;;;;;;11.46;nan;98957.38;5007799;23;20212;-84
2023/04/25 01:05:10;;;;;;;3.92;2.90;;;;;;;11.45;nan;98952.22;4955854;28;20187;-81
2023/04/25 01:07:35;;;;;;;4.43;2.60;;;;;;;11.44;nan;98953.22;4975448;28;20196;-83
2023/04/25 01:10:02;;;;;;;4.67;2.20;;;;;;;11.42;nan;98957.75;4976526;28;20458;-82
2023/04/25 01:12:27;;;;;;;7.50;3.00;;;;;;;11.39;nan;98950.09;4942080;28;20513;-81
2023/04/25 01:14:53;;;;;;;3.63;2.50;;;;;;;11.35;nan;98953.94;4928913;28;20541;-81
2023/04/25 01:17:18;;;;;;;3.23;2.50;;;;;;;11.31;nan;98950.69;4945647;28;20283;-83
2023/04/25 01:19:45;;;;;;;3.60;2.50;;;;;;;11.30;nan;98946.38;4948381;28;20192;-84
2023/04/25 01:22:11;;;;;;;3.58;2.75;;;;;;;11.26;nan;98947.56;4944903;28;20716;-82
2023/04/25 01:24:37;;;;;;;3.70;3.00;;;;;;;11.23;nan;98947.81;4941376;28;20216;-84
2023/04/25 01:27:03;;;;;;;3.15;2.42;;;;;;;11.21;nan;98947.94;4926765;28;20207;-83
2023/04/25 01:29:29;;;;;;;5.43;3.07;;;;;;;11.20;nan;98946.25;4928976;28;20816;-81
2023/04/25 01:31:55;;;;;;;3.83;3.15;;;;;;;11.16;nan;98942.19;4943295;28;21008;-83
2023/04/25 01:34:21;;;;;;;2.60;2.40;;;;;;;11.14;nan;98938.00;4927626;28;20177;-83
2023/04/25 01:36:50;;;;;;;6.10;3.30;;;;;;;11.11;nan;98933.81;4927489;28;20627;-84
2023/04/25 01:39:17;;;;;;;3.22;2.92;;;;;;;11.08;nan;98929.63;4929705;28;20448;-81
2023/04/25 01:41:44;;;;;;;5.45;2.97;;;;;;;11.10;nan;98928.66;4938770;28;20296;-83
2023/04/25 01:44:09;;;;;;;5.22;3.30;;;;;;;11.11;nan;98922.47;4941031;28;20727;-84
2023/04/25 01:46:35;;;;;;;6.43;2.63;;;;;;;11.14;nan;98932.75;4927240;28;20194;-82
2023/04/25 01:49:01;;;;;;;4.50;3.40;;;;;;;11.15;nan;98929.16;4943283;28;20244;-82
2023/04/25 01:51:26;;;;;;;7.17;5.07;;;;;;;11.13;nan;98925.84;4928225;28;20283;-83
2023/04/25 01:53:52;;;;;;;3.97;2.87;;;;;;;11.11;nan;98925.94;4928677;28;20507;-81
2023/04/25 01:56:18;;;;;;;8.60;3.10;;;;;;;11.10;nan;98932.16;4926857;28;20287;-83
2023/04/25 01:58:44;;;;;;;5.87;3.90;;;;;;;11.11;nan;98925.94;4929871;28;20353;-81
2023/04/25 02:01:18;;;;;;;7.65;3.28;;;;;;;11.10;nan;98924.28;4946260;28;20472;-81
2023/04/25 02:03:53;;;;;;;5.93;3.20;;;;;;;11.11;nan;98922.47;4926767;28;20215;-81
2023/04/25 02:06:27;;;;;;;3.78;3.15;;;;;;;11.10;nan;98919.03;4929307;28;20230;-82
2023/04/25 02:08:55;;;;;;;6.10;3.35;;;;;;;11.06;nan;98913.13;4930468;28;20203;-83
2023/04/25 02:11:21;;;;;;;7.70;4.10;;;;;;;11.05;nan;98918.53;4945358;28;20197;-82
2023/04/25 02:13:55;;;;;;;4.05;3.75;;;;;;;11.05;nan;98924.63;4928655;28;20419;-83
2023/04/25 02:16:36;;;;;;;4.32;3.15;;;;;;;11.05;nan;98915.91;4926183;28;20258;-83
2023/04/25 02:19:02;;;;;;;5.47;3.13;;;;;;;11.04;nan;98922.09;4930949;28;20831;-81
2023/04/25 02:21:30;;;;;;;5.85;3.85;;;;;;;11.01;nan;98910.03;4939561;28;20413;-80
2023/04/25 02:23:56;;;;;;;4.88;3.85;;;;;;;11.01;nan;98914.44;4923898;28;20206;-81
2023/04/25 02:26:23;;;;;;;5.82;3.50;;;;;;;11.00;nan;98913.63;4945148;28;20648;-83
2023/04/25 02:28:51;;;;;;;5.85;3.80;;;;;;;10.99;nan;98909.34;4930305;28;20229;-81
2023/04/25 02:31:18;;;;;;;3.70;3.25;;;;;;;10.96;nan;98911.34;4946117;28;20208;-82
2023/04/25 02:33:44;;;;;;;4.47;3.60;;;;;;;10.94;nan;98913.25;4932972;28;20211;-83
2023/04/25 02:36:09;;;;;;;7.30;3.67;;;;;;;10.93;nan;98907.16;4945632;28;20506;-81
2023/04/25 02:38:35;;;;;;;4.77;3.20;;;;;;;10.91;nan;98902.97;4930351;28;20376;-80
2023/04/25 02:41:02;;;;;;;5.15;3.47;;;;;;;10.90;nan;98907.38;4929449;28;20212;-81
2023/04/25 02:43:27;;;;;;;5.23;3.60;;;;;;;10.92;nan;98899.41;4946113;28;20223;-83
2023/04/25 02:45:52;;;;;;;4.50;3.80;;;;;;;10.93;nan;98906.31;4946523;28;20209;-83
2023/04/25 02:48:18;;;;;;;7.70;4.10;;;;;;;10.93;nan;98901.06;4929886;28;20303;-82
2023/04/25 02:50:43;;;;;;;5.50;4.50;;;;;;;10.94;nan;98902.75;4945210;28;20200;-82
2023/04/25 02:53:09;;;;;;;6.50;3.20;;;;;;;10.94;nan;98897.50;4946766;28;20212;-81
2023/04/25 02:55:42;;;;;;;5.80;3.05;;;;;;;10.93;nan;98883.50;4932893;28;20227;-80
2023/04/25 02:58:07;;;;;;;3.93;3.20;;;;;;;10.93;nan;98880.88;4929818;28;20705;-82
2023/04/25 03:00:41;;;;;;;3.15;2.85;;;;;;;10.95;nan;98880.75;4928579;28;20398;-80
2023/04/25 03:03:06;;;;;;;4.03;3.50;;;;;;;10.96;nan;98885.88;4930345;28;20259;-81
2023/04/25 03:05:31;;;;;;;3.37;2.63;;;;;;;10.96;nan;98879.81;4929970;28;20430;-80
2023/04/25 03:07:58;;;;;;;4.45;3.60;;;;;;;10.95;nan;98876.34;4927411;28;21049;-81
2023/04/25 03:10:25;;;;;;;4.18;3.10;;;;;;;10.96;nan;98880.63;4928367;28;20207;-81
2023/04/25 03:12:50;;;;;;;5.23;3.53;;;;;;;10.96;nan;98885.88;4927218;28;20208;-82
2023/04/25 03:15:16;;;;;;;4.57;3.43;;;;;;;10.99;nan;98880.44;4929428;28;20855;-81
2023/04/25 03:17:42;;;;;;;4.00;3.30;;;;;;;11.03;nan;98873.13;4945278;28;20211;-80
2023/04/25 03:20:08;;;;;;;7.30;3.20;;;;;;;11.04;nan;98872.16;4946941;28;20467;-82
2023/04/25 03:22:34;;;;;;;4.80;3.40;;;;;;;11.06;nan;98872.88;4927400;28;20342;-82
2023/04/25 03:24:59;;;;;;;5.90;3.67;;;;;;;11.09;nan;98859.50;4946204;28;20208;-81
2023/04/25 03:27:25;;;;;;;4.77;3.63;;;;;;;11.11;nan;98857.59;4928430;28;20243;-81
2023/04/25 03:29:50;;;;;;;7.70;3.80;;;;;;;11.12;nan;98851.38;4931266;28;20320;-82
2023/04/25 03:32:16;;;;;;;5.77;4.07;;;;;;;11.14;nan;98849.47;4930657;28;20546;-80
2023/04/25 03:34:41;;;;;;;5.50;3.47;;;;;;;11.12;nan;98846.13;4943538;28;20244;-80
2023/04/25 03:37:06;;;;;;;6.50;3.97;;;;;;;11.10;nan;98847.19;4934627;28;21103;-80
2023/04/25 03:39:37;;;;;;;6.47;2.90;;;;;;;11.05;nan;98844.94;4928868;28;20204;-81
2023/04/25 03:42:03;;;;;;;9.00;4.00;;;;;;;10.96;nan;98833.34;4945226;28;20209;-82
2023/04/25 03:44:28;;;;;;;3.50;3.20;;;;;;;10.89;nan;98837.41;4927527;28;20220;-80
2023/04/25 03:46:54;;;;;;;5.40;3.93;;;;;;;10.84;nan;98832.50;4930702;28;20266;-81
2023/04/25 03:49:19;;;;;;;4.50;3.33;;;;;;;10.80;nan;98833.72;4929801;28;20542;-81
2023/04/25 03:52:00;;;;;;;5.43;3.53;;;;;;;10.70;nan;98837.16;4941328;28;20305;-80
2023/04/25 03:54:27;;;;;;;6.20;3.45;;;;;;;10.64;nan;98835.84;4928002;28;20724;-81
2023/04/25 03:56:57;;;;;;;6.88;3.00;;;;;;;10.59;nan;98830.09;4929887;28;20197;-81
2023/04/25 03:59:26;;;;;;;4.72;2.78;;;;;;;10.55;nan;98823.38;4931213;28;20192;-80
2023/04/25 04:01:52;;;;;;;6.40;3.13;;;;;;;10.52;nan;98821.84;4941679;28;20232;-81
2023/04/25 04:04:18;;;;;;;4.25;3.35;;;;;;;10.47;nan;98823.13;4940956;28;20453;-81
2023/04/25 04:06:43;;;;;;;4.93;3.70;;;;;;;10.45;nan;98820.66;4933981;28;20311;-82
2023/04/25 04:09:17;;;;;;;4.03;3.67;;;;;;;10.41;nan;98809.50;4931654;28;20204;-81
2023/04/25 04:11:43;;;;;;;6.63;3.53;;;;;;;10.39;nan;98821.09;4930750;28;20217;-82
2023/04/25 04:14:10;;;;;;;5.77;3.70;;;;;;;10.37;nan;98815.13;4932726;28;20503;-80
2023/04/25 04:16:37;;;;;;;6.75;4.63;;;;;;;10.35;nan;98817.88;4932119;28;20231;-80
2023/04/25 04:19:03;;;;;;;6.30;4.10;;;;;;;10.33;nan;98825.00;4933514;28;20557;-81
2023/04/25 04:21:28;;;;;;;5.33;3.03;;;;;;;10.33;nan;98824.19;4934066;28;20243;-80
2023/04/25 04:23:57;;;;;;;3.63;3.10;;;;;;;10.29;nan;98820.09;4937386;28;20621;-81
2023/04/25 04:26:23;;;;;;;9.63;3.78;;;;;;;10.26;nan;98834.28;4936177;28;20323;-81
2023/04/25 04:29:01;;;;;;;5.68;4.00;;;;;;;10.21;nan;98839.03;4954379;28;20273;-82
2023/04/25 04:31:39;;;;;;;7.20;4.38;;;;;;;10.13;nan;98830.91;4952994;28;20803;-81
2023/04/25 04:34:05;;;;;;;6.23;4.50;;;;;;;10.04;nan;98834.19;4935476;28;20204;-80
2023/04/25 04:36:32;;;;;;;5.05;4.63;;;;;;;9.98;nan;98840.72;4954104;28;20211;-81
2023/04/25 04:38:58;;;;;;;4.20;3.90;;;;;;;9.98;nan;98851.22;4937412;28;20204;-81
2023/04/25 04:41:56;;;;;;;6.25;3.78;;;;;;;10.02;nan;98843.94;4939711;28;20856;-81
2023/04/25 04:44:44;;;;;;;5.45;4.03;;;;;;;10.01;nan;98834.41;4948518;28;20299;-81
2023/04/25 04:47:23;;;;;;;7.05;3.53;;;;;;;9.98;nan;98845.97;4939719;28;20219;-80
2023/04/25 04:50:11;;;;;;;3.78;3.45;;;;;;;9.97;nan;98845.13;4933553;28;20766;-81
2023/04/25 04:52:57;;;;;;;7.85;5.05;;;;;;;10.01;nan;98844.91;4950001;28;20331;-83
2023/04/25 04:55:46;;;;;;;9.45;3.10;;;;;;;10.06;nan;98838.38;4934192;28;20216;-81
2023/04/25 04:58:24;;;;;;;5.45;3.75;;;;;;;10.12;nan;98842.31;4953525;28;20233;-80
2023/04/25 05:01:18;;;;;;;5.80;2.95;;;;;;;10.16;nan;98838.53;4936806;28;20217;-81
2023/04/25 05:04:00;;;;;;;5.85;3.50;;;;;;;10.21;nan;98846.91;4952843;28;20732;-80
2023/04/25 05:06:44;;;;;;;6.10;3.78;;;;;;;10.27;nan;98849.09;4954409;28;20594;-82
2023/04/25 05:09:28;;;;;;;8.20;4.20;;;;;;;10.37;nan;98842.22;4954298;28;20372;-82
2023/04/25 05:12:16;;;;;;;5.60;4.25;;;;;;;10.51;nan;98845.59;4946365;28;20209;-83
2023/04/25 05:15:12;;;;;;;5.28;3.95;;;;;;;10.56;nan;98848.72;4939520;28;20239;-82
2023/04/25 05:17:51;;;;;;;5.28;4.15;;;;;;;10.56;nan;98846.09;4938882;28;20245;-81
2023/04/25 05:20:24;;;;;;;9.07;4.55;;;;;;;10.54;nan;98851.44;4956436;28;20197;-82
2023/04/25 05:23:08;;;;;;;7.97;4.65;;;;;;;10.52;nan;98852.50;4956972;28;20573;-81
2023/04/25 05:25:54;;;;;;;7.28;4.63;;;;;;;10.49;nan;98852.75;4958000;28;20200;-80
2023/04/25 05:28:45;;;;;;;6.18;5.57;;;;;;;10.46;nan;98859.06;4956276;28;20415;-82
2023/04/25 05:31:35;;;;;;;4.20;3.63;;;;;;;10.41;nan;98863.81;4942570;28;20200;-82
2023/04/25 05:34:06;;;;;;;8.40;4.15;;;;;;;10.34;nan;98862.59;4942007;28;20201;-81
2023/04/25 05:36:48;;;;;;;6.82;3.92;;;;;;;10.27;nan;98858.75;4942715;28;20221;-81
2023/04/25 05:39:17;;;;;;;7.32;3.90;;;;;;;10.19;nan;98870.63;4945104;28;20220;-82
2023/04/25 05:42:01;;;;;;;7.28;3.70;;;;;;;10.12;nan;98868.56;4965425;28;20635;-82
2023/04/25 05:44:45;;;;;;;5.63;3.67;;;;;;;10.04;nan;98884.03;4958687;28;20553;-83
2023/04/25 05:47:29;;;;;;;4.07;3.25;;;;;;;9.99;nan;98889.63;4960875;28;20272;-84
2023/04/25 05:50:02;;;;;;;5.20;3.63;;;;;;;9.90;nan;98895.53;4942416;28;20218;-83
2023/04/25 05:52:47;;;;;;;4.03;3.25;;;;;;;9.84;nan;98907.31;4937823;28;20232;-83
2023/04/25 05:55:23;;;;;;;5.30;3.90;;;;;;;9.79;nan;98905.97;4941814;28;20193;-85
2023/04/25 05:57:49;;;;;;;4.55;3.92;;;;;;;9.74;nan;98924.66;4924895;28;20210;-83
2023/04/25 06:00:15;;;;;;;4.80;3.10;;;;;;;9.65;nan;98928.75;4923835;28;20225;-85
2023/04/25 06:02:42;;;;;;;4.18;2.80;;;;;;;9.57;nan;98936.34;4924793;28;20472;-83
2023/04/25 06:05:09;;;;;;;3.03;2.13;;;;;;;9.49;nan;98936.88;4925314;28;20287;-82
2023/04/25 06:07:35;;;;;;;2.70;2.50;;;;;;;9.35;nan;98939.63;4937874;28;20208;-84
2023/04/25 06:10:03;;;;;;;5.03;3.35;;;;;;;9.28;nan;98943.59;4933629;28;20299;-85
2023/04/25 06:12:29;;;;;;;3.70;3.00;;;;;;;9.21;nan;98948.44;4934851;28;20627;-83
2023/04/25 06:14:54;;;;;;;2.80;2.23;;;;;;;9.17;nan;98961.84;4943068;28;20202;-83
2023/04/25 06:17:28;;;;;;;8.03;4.93;;;;;;;9.13;nan;98962.97;4936823;28;20201;-83
2023/04/25 06:19:54;;;;;;;5.45;3.88;;;;;;;9.06;nan;98962.56;4936731;28;21201;-83
2023/04/25 06:22:19;;;;;;;8.07;4.80;;;;;;;9.01;nan;98972.50;4936487;28;20212;-83
2023/04/25 06:24:45;;;;;;;6.80;3.10;;;;;;;8.95;nan;98967.69;4935512;28;20301;-83
2023/04/25 06:27:11;;;;;;;3.75;2.92;;;;;;;8.91;nan;98972.31;4945731;28;20207;-85
2023/04/25 06:29:36;;;;;;;9.87;6.17;;;;;;;8.89;nan;98984.66;4938205;28;20186;-83
2023/04/25 06:32:02;;;;;;;1.80;1.70;;;;;;;8.87;nan;98983.91;4938345;28;20200;-84
2023/04/25 06:34:28;;;;;;;7.60;3.17;;;;;;;8.88;nan;98987.38;4939672;28;20574;-82
2023/04/25 06:36:54;;;;;;;4.00;2.23;;;;;;;8.88;nan;98980.34;4937857;28;20192;-84
2023/04/25 06:39:22;;;;;;;3.67;2.50;;;;;;;8.89;nan;98981.22;4940563;28;20272;-84
2023/04/25 06:41:48;;;;;;;3.17;2.28;;;;;;;8.91;nan;98985.41;4956644;28;20209;-84
2023/04/25 06:44:34;;;;;;;3.40;1.95;;;;;;;8.93;nan;98987.91;4957888;28;20843;-85
2023/04/25 06:46:59;;;;;;;3.77;2.00;;;;;;;8.94;nan;98987.81;4940160;28;20236;-86
2023/04/25 06:49:24;;;;;;;3.80;1.80;;;;;;;8.97;nan;98985.00;4937792;28;20216;-84
2023/04/25 06:51:50;;;;;;;2.03;1.83;;;;;;;9.02;nan;98988.16;4939121;28;20212;-85
2023/04/25 06:54:16;;;;;;;1.70;1.60;;;;;;;9.06;nan;98994.00;4939689;28;20181;-85
2023/04/25 06:56:51;;;;;;;3.85;2.00;;;;;;;9.04;nan;98996.72;4941970;28;20219;-82
2023/04/25 06:59:16;;;;;;;5.73;1.80;;;;;;;9.03;nan;98995.03;4941069;28;20189;-83
2023/04/25 07:04:34;;;;;;;3.58;2.65;;;;;;;8.98;nan;99005.00;4906370;29;20471;-80
2023/04/25 07:07:02;;;;;;;3.90;2.20;;;;;;;9.04;nan;99011.59;4900271;29;20209;-80
2023/04/25 07:09:44;;;;;;;4.45;2.63;;;;;;;9.12;nan;99009.31;4927407;29;20197;-81
2023/04/25 07:12:09;;;;;;;5.50;2.47;;;;;;;9.20;nan;99004.38;4914388;29;20205;-81
2023/04/25 07:14:35;;;;;;;6.73;4.30;;;;;;;9.27;nan;99015.31;4935716;28;20515;-81
2023/04/25 07:17:00;;;;;;;4.63;4.10;;;;;;;9.34;nan;99021.78;4916229;28;20208;-81
2023/04/25 07:19:29;;;;;;;5.97;4.97;;;;;;;9.39;nan;99027.56;4935231;29;20203;-81
2023/04/25 07:21:56;;;;;;;5.93;4.25;;;;;;;9.46;nan;99033.25;4936253;28;20274;-81
2023/04/25 07:24:22;;;;;;;9.17;6.40;;;;;;;9.48;nan;99028.75;4928772;28;20205;-80
2023/04/25 07:26:48;;;;;;;7.05;5.05;;;;;;;9.51;nan;99024.13;4946795;28;20456;-80
2023/04/25 07:29:37;;;;;;;7.32;5.30;;;;;;;9.52;nan;99024.94;4943776;28;20209;-80
2023/04/25 07:32:03;;;;;;;8.05;5.35;;;;;;;9.50;nan;99030.31;4928545;28;20227;-80
2023/04/25 07:34:30;;;;;;;5.13;4.63;;;;;;;9.55;nan;99037.00;4944050;28;20201;-80
2023/04/25 07:36:55;;;;;;;5.20;3.88;;;;;;;9.60;nan;99041.00;4936561;28;20239;-81
2023/04/25 07:39:23;;;;;;;6.53;3.05;;;;;;;9.64;nan;99046.84;4936826;28;20681;-81
2023/04/25 07:41:48;;;;;;;10.23;4.82;;;;;;;9.67;nan;99044.88;4938140;28;20213;-81
2023/04/25 07:44:19;;;;;;;4.25;3.85;;;;;;;9.70;nan;99042.03;4931971;29;20205;-81
2023/04/25 07:46:45;;;;;;;8.37;4.97;;;;;;;9.75;nan;99047.81;4948388;28;20208;-81
2023/04/25 07:49:10;;;;;;;3.57;3.13;;;;;;;9.80;nan;99052.72;4947271;28;20209;-81
2023/04/25 07:51:36;;;;;;;5.33;2.70;;;;;;;9.85;nan;99053.25;4949504;28;20208;-81
2023/04/25 07:54:07;;;;;;;2.50;1.90;;;;;;;9.90;nan;99058.19;4931594;28;20337;-81
2023/04/25 07:56:35;;;;;;;2.28;2.08;;;;;;;9.94;nan;99063.13;4933518;29;20292;-81
2023/04/25 07:59:01;;;;;;;2.10;1.80;;;;;;;9.98;nan;99071.59;4937186;29;20288;-81
2023/04/25 08:01:26;;;;;;;3.33;1.97;;;;;;;10.02;nan;99075.69;4934604;29;20605;-81
2023/04/25 08:03:56;;;;;;;5.70;2.53;;;;;;;10.07;nan;99085.84;4951071;28;20262;-81
2023/04/25 08:06:33;;;;;;;2.40;2.05;;;;;;;10.14;nan;99079.25;4952539;28;20272;-81
2023/04/25 08:09:09;;;;;;;2.38;1.80;;;;;;;10.19;nan;99090.25;4951426;28;20204;-81
2023/04/25 08:11:38;;;;;;;2.33;2.05;;;;;;;10.19;nan;99090.25;4951283;28;20681;-81
2023/04/25 08:14:03;;;;;;;3.97;2.58;;;;;;;10.21;nan;99098.88;4959956;28;20252;-81
2023/04/25 08:16:29;;;;;;;2.07;1.70;;;;;;;10.28;nan;99099.28;4965875;28;20216;-81
2023/04/25 08:18:56;;;;;;;2.25;1.90;;;;;;;10.32;nan;99098.97;4966876;28;20193;-81
2023/04/25 08:21:21;;;;;;;5.10;3.33;;;;;;;10.36;nan;99105.66;4950827;28;20224;-81
2023/04/25 08:23:47;;;;;;;7.13;4.23;;;;;;;10.36;nan;99115.34;4958926;28;20656;-80
2023/04/25 08:26:28;;;;;;;3.47;2.78;;;;;;;10.37;nan;99115.25;4952640;28;20207;-81
2023/04/25 08:28:54;;;;;;;5.20;2.75;;;;;;;10.33;nan;99121.66;4959966;28;20197;-80
2023/04/25 08:31:21;;;;;;;1.98;1.65;;;;;;;10.28;nan;99118.50;4959420;28;20256;-80
2023/04/25 08:33:55;;;;;;;2.13;1.70;;;;;;;10.25;nan;99129.19;4950728;28;20267;-80
2023/04/25 08:36:27;;;;;;;2.83;1.77;;;;;;;10.27;nan;99129.97;4950268;28;20462;-80
2023/04/25 08:38:53;;;;;;;3.20;2.03;;;;;;;10.30;nan;99140.25;4960637;28;20267;-80
2023/04/25 08:41:21;;;;;;;2.40;2.00;;;;;;;10.32;nan;99133.09;4964627;28;20212;-80
2023/04/25 08:43:48;;;;;;;3.50;2.35;;;;;;;10.34;nan;99132.97;4953046;28;20220;-80
2023/04/25 08:46:17;;;;;;;1.80;1.70;;;;;;;10.34;nan;99143.47;4966334;28;20213;-80
2023/04/25 08:49:07;;;;;;;3.28;1.85;;;;;;;10.34;nan;99146.97;4963977;28;20369;-80
2023/04/25 08:51:33;;;;;;;2.88;2.20;;;;;;;10.35;nan;99148.63;4943332;28;20224;-80
2023/04/25 08:54:12;;;;;;;2.70;2.05;;;;;;;10.38;nan;99155.47;4950504;28;20228;-81
2023/04/25 08:56:44;;;;;;;4.75;3.30;;;;;;;10.40;nan;99157.03;4966601;28;20283;-80
2023/04/25 08:59:11;;;;;;;10.52;5.78;;;;;;;10.45;nan;99161.09;4967024;28;20204;-80
2023/04/25 09:01:36;;;;;;;11.95;6.13;;;;;;;10.45;nan;99159.34;4967644;28;20205;-80
2023/04/25 09:04:02;;;;;;;14.90;8.73;;;;;;;10.44;nan;99162.06;4938955;28;20284;-80
2023/04/25 09:06:31;;;;;;;8.77;5.80;;;;;;;10.45;nan;99171.59;4947495;28;20438;-80
2023/04/25 09:09:06;;;;;;;5.93;4.90;;;;;;;10.47;nan;99172.34;4947168;28;20811;-80
2023/04/25 09:11:33;;;;;;;11.60;5.18;;;;;;;10.46;nan;99173.31;4940669;28;20785;-81
2023/04/25 09:14:11;;;;;;;10.73;3.70;;;;;;;10.44;nan;99180.44;4949024;28;20205;-81
2023/04/25 09:16:55;;;;;;;4.68;4.10;;;;;;;10.43;nan;99186.66;4947327;28;20570;-81
2023/04/25 09:19:44;;;;;;;6.60;5.88;;;;;;;10.47;nan;99182.84;4945457;28;20207;-81
2023/04/25 09:22:18;;;;;;;8.05;5.05;;;;;;;10.53;nan;99182.41;4931216;29;20216;-81
2023/04/25 09:24:49;;;;;;;5.20;4.57;;;;;;;10.59;nan;99182.00;4947489;28;20228;-80
2023/04/25 09:27:22;;;;;;;7.97;4.00;;;;;;;10.69;nan;99184.81;4943133;28;20197;-80
2023/04/25 09:30:00;;;;;;;5.07;4.07;;;;;;;10.80;nan;99179.63;4931514;28;20192;-80
2023/04/25 09:32:27;;;;;;;6.43;4.38;;;;;;;10.97;nan;99192.41;4931932;29;20252;-80
2023/04/25 09:34:56;;;;;;;6.90;5.40;;;;;;;11.11;nan;99194.03;4932109;29;20607;-80
2023/04/25 09:37:26;;;;;;;3.33;3.03;;;;;;;11.17;nan;99193.59;4942904;28;20201;-80
2023/04/25 09:40:30;;;;;;;6.05;4.43;;;;;;;11.17;nan;99198.00;4944765;28;20217;-81
2023/04/25 09:43:09;;;;;;;3.92;3.53;;;;;;;11.18;nan;99210.19;4930632;29;20213;-81
2023/04/25 09:45:45;;;;;;;3.60;3.10;;;;;;;11.17;nan;99213.78;4944936;28;20201;-81
2023/04/25 09:48:11;;;;;;;2.92;2.47;;;;;;;11.16;nan;99210.31;4928945;29;20204;-80
2023/04/25 09:50:41;;;;;;;2.92;2.72;;;;;;;11.21;nan;99217.88;4929586;29;20223;-81
2023/04/25 09:53:09;;;;;;;6.80;2.38;;;;;;;11.26;nan;99219.22;4931609;29;20205;-81
2023/04/25 09:56:00;;;;;;;4.80;2.60;;;;;;;11.29;nan;99224.25;4932494;28;20208;-81
2023/04/25 09:58:29;;;;;;;2.88;2.22;;;;;;;11.33;nan;99221.41;4930743;28;20201;-81
2023/04/25 10:00:59;;;;;;;5.55;2.35;;;;;;;11.41;nan;99222.50;4931019;29;20213;-80
2023/04/25 10:03:35;;;;;;;2.28;2.05;;;;;;;11.55;nan;99216.22;4947322;28;20225;-80
2023/04/25 10:06:26;;;;;;;4.63;4.13;;;;;;;11.76;nan;99220.84;4940201;28;20237;-80
2023/04/25 10:08:54;;;;;;;2.95;2.05;;;;;;;11.97;nan;99228.97;4948193;28;20197;-80
2023/04/25 10:11:22;;;;;;;2.70;2.30;;;;;;;12.06;nan;99223.84;4946580;28;20462;-80
2023/04/25 10:13:48;;;;;;;2.83;2.58;;;;;;;12.26;nan;99227.59;4948200;28;20239;-80
2023/04/25 10:16:16;;;;;;;2.50;2.20;;;;;;;12.38;nan;99223.16;4947371;28;20201;-81
2023/04/25 10:18:41;;;;;;;2.90;2.20;;;;;;;12.55;nan;99213.94;4951082;28;20500;-80
2023/04/25 10:21:07;;;;;;;4.00;1.80;;;;;;;12.67;nan;99217.44;4938591;28;20230;-80
2023/04/25 10:23:34;;;;;;;2.33;1.67;;;;;;;12.78;nan;99218.25;4937266;28;20212;-81
2023/04/25 10:26:00;;;;;;;13.15;8.90;;;;;;;12.77;nan;99213.09;4939705;28;20202;-80
2023/04/25 10:28:26;;;;;;;1.67;1.48;;;;;;;12.67;nan;99217.44;4940395;28;20215;-82
2023/04/25 10:31:02;;;;;;;2.33;1.30;;;;;;;12.56;nan;99213.84;4941764;28;20356;-82
2023/04/25 10:33:39;;;;;;;1.75;1.40;;;;;;;12.62;nan;99210.72;4940391;28;20209;-81
2023/04/25 10:36:09;;;;;;;2.10;1.60;;;;;;;12.87;nan;99211.41;4938718;28;20468;-83
2023/04/25 10:38:36;;;;;;;1.65;1.52;;;;;;;13.02;nan;99212.84;4935483;28;20219;-80
2023/04/25 10:41:04;;;;;;;1.60;1.45;;;;;;;13.19;nan;99208.00;4935171;28;20516;-81
2023/04/25 10:43:46;;;;;;;1.75;1.55;;;;;;;13.44;nan;99210.34;4935753;28;20691;-81
2023/04/25 10:46:25;;;;;;;3.00;2.00;;;;;;;13.56;nan;99210.31;4938213;28;20201;-82
2023/04/25 10:48:55;;;;;;;1.40;1.27;;;;;;;13.73;nan;99209.75;4939836;28;20203;-81
2023/04/25 10:51:22;;;;;;;2.50;1.65;;;;;;;13.86;nan;99210.41;4938469;28;20236;-81
2023/04/25 10:54:03;;;;;;;2.03;1.80;;;;;;;13.88;nan;99202.34;4940322;28;20208;-81
2023/04/25 10:56:35;;;;;;;2.58;1.55;;;;;;;13.90;nan;99209.16;4940284;28;20290;-81
2023/04/25 10:59:09;;;;;;;2.28;1.70;;;;;;;13.92;nan;99215.16;4942686;28;20215;-80
2023/04/25 11:01:51;;;;;;;2.13;1.60;;;;;;;13.98;nan;99211.19;4938584;28;20236;-81
2023/04/25 11:04:29;;;;;;;2.38;1.80;;;;;;;14.09;nan;99205.81;4940381;28;20185;-81
2023/04/25 11:07:06;;;;;;;3.97;2.45;;;;;;;14.19;nan;99197.13;4940835;28;20824;-81
2023/04/25 11:09:33;;;;;;;2.40;2.20;;;;;;;14.01;nan;99202.16;4940398;29;20217;-81
2023/04/25 11:12:00;;;;;;;3.15;2.42;;;;;;;13.91;nan;99187.09;4940760;28;20292;-80
2023/04/25 11:14:26;;;;;;;2.40;2.00;;;;;;;13.86;nan;99194.56;4941938;29;20196;-80
2023/04/25 11:16:56;;;;;;;2.22;2.03;;;;;;;13.78;nan;99201.47;4941742;28;20216;-80
2023/04/25 11:19:22;;;;;;;1.83;1.73;;;;;;;13.76;nan;99201.56;4942467;29;20724;-80
2023/04/25 11:21:48;;;;;;;2.10;1.90;;;;;;;13.81;nan;99202.03;4945276;28;20292;-81
2023/04/25 11:24:13;;;;;;;2.40;1.67;;;;;;;13.71;nan;99203.75;4947103;29;20193;-80
2023/04/25 11:26:42;;;;;;;2.20;2.00;;;;;;;13.60;nan;99199.38;4942708;28;20211;-81
2023/04/25 11:29:07;;;;;;;3.33;2.90;;;;;;;13.55;nan;99198.91;4943985;29;20622;-80
2023/04/25 11:31:33;;;;;;;3.20;1.93;;;;;;;13.53;nan;99198.22;4943745;28;20199;-80
2023/04/25 11:33:59;;;;;;;3.70;2.50;;;;;;;13.47;nan;99196.94;4944246;28;20217;-81
2023/04/25 11:36:25;;;;;;;4.03;2.50;;;;;;;13.49;nan;99197.63;4942289;28;20820;-80
2023/04/25 11:38:51;;;;;;;2.97;2.55;;;;;;;13.42;nan;99203.50;4942608;28;20453;-80
2023/04/25 11:41:18;;;;;;;4.73;2.13;;;;;;;13.41;nan;99202.69;4943129;28;20228;-80
2023/04/25 11:43:44;;;;;;;2.30;2.10;;;;;;;13.42;nan;99193.81;4940741;28;21197;-80
2023/04/25 11:46:09;;;;;;;6.73;3.00;;;;;;;13.43;nan;99200.75;4942052;28;20274;-80
2023/04/25 11:48:42;;;;;;;3.60;2.30;;;;;;;13.45;nan;99201.50;4941245;29;20483;-80
2023/04/25 11:51:08;;;;;;;3.08;2.10;;;;;;;13.54;nan;99201.69;4941275;29;20397;-80
2023/04/25 11:53:33;;;;;;;3.30;3.00;;;;;;;13.63;nan;99193.00;4942362;28;20904;-80
2023/04/25 11:55:59;;;;;;;2.77;1.93;;;;;;;13.77;nan;99191.84;4939936;28;20448;-80
2023/04/25 11:58:27;;;;;;;2.47;1.70;;;;;;;13.90;nan;99187.22;4941371;28;20217;-80
2023/04/25 12:00:53;;;;;;;1.95;1.20;;;;;;;14.00;nan;99190.75;4940958;28;20481;-80
2023/04/25 12:03:19;;;;;;;1.67;1.07;;;;;;;14.11;nan;99179.28;4937510;28;20220;-80
2023/04/25 12:05:45;;;;;;;1.60;1.10;;;;;;;14.22;nan;99186.31;4959883;28;20208;-80
2023/04/25 12:08:17;;;;;;;1.45;1.15;;;;;;;14.36;nan;99186.78;4957930;28;20193;-80